createdAt,value
2019-04-25T00:00:37.977Z,13.13
2019-04-25T00:03:12.214Z,20.20
2019-04-25T00:05:43.572Z,20.43
2019-04-25T00:08:14.397Z,17.53
2019-04-25T00:10:46.085Z,18.47
2019-04-25T00:13:16.723Z,14.33
2019-04-25T00:15:48.052Z,21.97
2019-04-25T00:18:18.711Z,21.77
2019-04-25T00:20:53.921Z,14.60
2019-04-25T00:23:24.481Z,17.63
2019-04-25T00:26:15.713Z,17.97
2019-04-25T00:28:46.722Z,18.73
2019-04-25T00:31:18.470Z,16.87
2019-04-25T00:33:49.590Z,17.03
2019-04-25T00:36:21.820Z,15.97
2019-04-25T00:38:53.237Z,17.37
2019-04-25T00:41:23.732Z,19.93
2019-04-25T00:43:54.352Z,16.93
2019-04-25T00:46:24.851Z,19.70
2019-04-25T00:48:55.288Z,17.07
2019-04-25T00:51:25.668Z,16.90
2019-04-25T00:53:56.102Z,17.70
2019-04-25T00:56:26.532Z,17.83
2019-04-25T00:59:16.031Z,15.07
2019-04-25T01:02:01.495Z,17.77
2019-04-25T01:04:33.890Z,19.80
2019-04-25T01:07:04.547Z,19.10
2019-04-25T01:09:35.267Z,13.10
2019-04-25T01:12:06.602Z,17.63
2019-04-25T01:14:37.119Z,21.87
2019-04-25T01:17:07.877Z,15.93
2019-04-25T01:19:38.380Z,16.23
2019-04-25T01:22:11.794Z,14.03
2019-04-25T01:24:43.855Z,15.30
2019-04-25T01:27:14.591Z,19.77
2019-04-25T01:29:46.320Z,18.43
2019-04-25T01:32:20.566Z,20.90
2019-04-25T01:35:01.103Z,15.37
2019-04-25T01:37:39.313Z,17.60
2019-04-25T01:40:29.088Z,20.73
2019-04-25T01:43:18.638Z,16.37
2019-04-25T01:45:49.690Z,18.50
2019-04-25T01:48:20.569Z,12.93
2019-04-25T01:50:51.101Z,20.63
2019-04-25T01:53:21.541Z,21.53
2019-04-25T01:56:00.944Z,17.50
2019-04-25T01:58:25.342Z,15.87
2019-04-25T02:00:57.068Z,19.90
2019-04-25T02:03:28.041Z,18.73
2019-04-25T02:05:59.664Z,19.83
2019-04-25T02:08:30.132Z,14.40
2019-04-25T02:11:11.723Z,22.53
2019-04-25T02:13:43.739Z,15.00
2019-04-25T02:16:14.558Z,16.40
2019-04-25T02:18:45.077Z,17.67
2019-04-25T02:21:15.832Z,17.13
2019-04-25T02:23:46.371Z,14.10
2019-04-25T02:26:18.617Z,14.00
2019-04-25T02:28:49.121Z,22.17
2019-04-25T02:31:19.794Z,19.20
2019-04-25T02:33:56.680Z,19.37
2019-04-25T02:36:25.468Z,18.80
2019-04-25T02:38:59.556Z,14.50
2019-04-25T02:41:28.387Z,18.43
2019-04-25T02:44:02.994Z,18.87
2019-04-25T02:46:50.322Z,23.90
2019-04-25T02:49:40.114Z,18.10
2019-04-25T02:52:18.080Z,17.20
2019-04-25T02:54:49.966Z,20.77
2019-04-25T02:57:20.606Z,18.27
2019-04-25T02:59:51.056Z,20.63
2019-04-25T03:02:24.868Z,20.37
2019-04-25T03:04:57.548Z,19.00
2019-04-25T03:07:27.790Z,20.97
2019-04-25T03:09:59.482Z,18.87
2019-04-25T03:12:33.509Z,23.57
2019-04-25T03:15:05.347Z,19.17
2019-04-25T03:17:34.831Z,16.83
2019-04-25T03:20:20.714Z,16.33
2019-04-25T03:22:51.337Z,21.73
2019-04-25T03:25:24.599Z,22.27
2019-04-25T03:27:54.182Z,22.73
2019-04-25T03:30:25.672Z,18.93
2019-04-25T03:32:56.498Z,19.40
2019-04-25T03:35:27.004Z,19.23
2019-04-25T03:37:57.682Z,20.90
2019-04-25T03:40:28.506Z,20.00
2019-04-25T03:42:59.137Z,24.07
2019-04-25T03:45:29.840Z,23.20
2019-04-25T03:48:00.274Z,18.93
2019-04-25T03:50:31.642Z,20.53
2019-04-25T03:53:03.055Z,19.90
2019-04-25T03:55:35.925Z,18.67
2019-04-25T03:58:08.752Z,19.70
2019-04-25T04:00:38.976Z,20.20
2019-04-25T04:03:09.809Z,19.10
2019-04-25T04:05:40.321Z,23.43
2019-04-25T04:08:11.811Z,25.00
2019-04-25T04:10:43.245Z,22.17
2019-04-25T04:13:14.630Z,21.43
2019-04-25T04:15:45.925Z,14.93
2019-04-25T04:18:26.501Z,18.00
2019-04-25T04:21:03.208Z,17.30
2019-04-25T04:23:40.992Z,22.63
2019-04-25T04:26:13.660Z,16.23
2019-04-25T04:28:45.467Z,18.57
2019-04-25T04:31:16.599Z,23.13
2019-04-25T04:33:47.388Z,18.23
2019-04-25T04:36:19.817Z,21.03
2019-04-25T04:38:50.365Z,23.77
2019-04-25T04:41:20.870Z,17.13
2019-04-25T04:43:51.345Z,18.07
2019-04-25T04:46:21.840Z,19.60
2019-04-25T04:48:54.029Z,21.67
2019-04-25T04:51:24.628Z,22.97
2019-04-25T04:53:55.347Z,14.97
2019-04-25T04:56:25.822Z,18.60
2019-04-25T04:58:56.437Z,16.97
2019-04-25T05:01:28.718Z,19.00
2019-04-25T05:04:07.202Z,22.93
2019-04-25T05:06:47.048Z,19.97
2019-04-25T05:09:23.680Z,22.83
2019-04-25T05:11:54.069Z,20.83
2019-04-25T05:14:26.587Z,20.87
2019-04-25T05:16:56.752Z,17.67
2019-04-25T05:19:27.303Z,21.20
2019-04-25T05:21:58.900Z,14.73
2019-04-25T05:24:29.518Z,18.13
2019-04-25T05:26:59.933Z,23.17
2019-04-25T05:29:30.391Z,17.53
2019-04-25T05:32:01.124Z,23.73
2019-04-25T05:34:31.782Z,23.97
2019-04-25T05:37:03.854Z,23.40
2019-04-25T05:39:34.303Z,19.03
2019-04-25T05:42:11.883Z,15.83
2019-04-25T05:44:44.029Z,21.67
2019-04-25T05:47:15.901Z,16.60
2019-04-25T05:49:46.876Z,16.97
2019-04-25T05:52:17.571Z,16.77
2019-04-25T05:54:48.081Z,19.00
2019-04-25T05:57:18.809Z,18.40
2019-04-25T05:59:49.508Z,19.17
2019-04-25T06:02:20.148Z,21.23
2019-04-25T06:04:50.721Z,16.70
2019-04-25T06:07:21.527Z,21.20
2019-04-25T06:10:14.435Z,16.50
2019-04-25T06:12:50.882Z,12.88
2019-04-25T06:15:24.965Z,16.63
2019-04-25T06:18:14.841Z,23.73
2019-04-25T06:20:45.359Z,24.50
2019-04-25T06:23:36.277Z,15.70
2019-04-25T06:26:19.859Z,20.12
2019-04-25T06:28:49.468Z,21.15
2019-04-25T06:31:11.668Z,20.07
2019-04-25T06:33:43.474Z,17.02
2019-04-25T06:36:14.176Z,15.20
2019-04-25T06:38:44.858Z,22.40
2019-04-25T06:41:15.572Z,12.78
2019-04-25T06:43:47.853Z,16.17
2019-04-25T06:46:37.591Z,19.67
2019-04-25T06:49:16.450Z,13.30
2019-04-25T06:51:51.490Z,14.80
2019-04-25T06:54:25.237Z,16.25
2019-04-25T06:56:55.618Z,22.00
2019-04-25T06:59:27.552Z,12.68
2019-04-25T07:01:58.645Z,17.12
2019-04-25T07:04:29.280Z,15.10
2019-04-25T07:07:10.604Z,17.80
2019-04-25T07:09:34.954Z,21.95
2019-04-25T07:12:05.700Z,25.05
2019-04-25T07:14:36.873Z,28.80
2019-04-25T07:17:07.901Z,20.88
2019-04-25T07:19:38.641Z,19.98
2019-04-25T07:22:09.292Z,20.65
2019-04-25T07:24:40.014Z,26.70
2019-04-25T07:27:26.768Z,18.82
2019-04-25T07:30:05.619Z,21.93
2019-04-25T07:32:44.378Z,15.80
2019-04-25T07:35:15.068Z,19.37
2019-04-25T07:37:45.720Z,19.85
2019-04-25T07:40:17.052Z,18.65
2019-04-25T07:42:47.762Z,14.63
2019-04-25T07:45:18.612Z,16.40
2019-04-25T07:47:49.727Z,25.23
2019-04-25T07:50:20.721Z,21.70
2019-04-25T07:52:51.400Z,24.27
2019-04-25T07:55:23.329Z,20.75
2019-04-25T07:57:54.137Z,21.23
2019-04-25T08:00:25.253Z,18.25
2019-04-25T08:02:55.860Z,20.35
2019-04-25T08:05:27.816Z,18.60
2019-04-25T08:07:59.598Z,15.30
2019-04-25T08:10:36.170Z,20.27
2019-04-25T08:13:06.763Z,24.12
2019-04-25T08:15:56.272Z,16.20
2019-04-25T08:18:30.278Z,13.83
2019-04-25T08:21:03.247Z,20.92
2019-04-25T08:23:36.638Z,18.40
2019-04-25T08:26:06.729Z,22.58
2019-04-25T08:28:50.148Z,19.73
2019-04-25T08:31:11.110Z,16.95
2019-04-25T08:33:43.467Z,20.45
2019-04-25T08:36:14.303Z,15.72
2019-04-25T08:38:44.917Z,22.13
2019-04-25T08:41:16.749Z,22.58
2019-04-25T08:43:47.468Z,19.05
2019-04-25T08:46:19.653Z,18.00
2019-04-25T08:49:09.522Z,23.80
2019-04-25T08:51:40.688Z,19.10
2019-04-25T08:54:31.196Z,22.45
2019-04-25T08:57:05.098Z,21.07
2019-04-25T08:59:49.161Z,21.55
2019-04-25T09:02:36.499Z,15.90
2019-04-25T09:05:29.456Z,22.32
2019-04-25T09:08:01.308Z,17.75
2019-04-25T09:10:32.728Z,17.17
2019-04-25T09:13:04.788Z,23.00
2019-04-25T09:15:36.698Z,15.03
2019-04-25T09:18:07.987Z,22.80
2019-04-25T09:20:40.886Z,17.05
2019-04-25T09:23:10.998Z,17.75
2019-04-25T09:25:44.447Z,19.02
2019-04-25T09:28:15.001Z,13.85
2019-04-25T09:30:45.965Z,29.10
2019-04-25T09:33:16.652Z,21.45
2019-04-25T09:35:47.259Z,12.85
2019-04-25T09:38:20.403Z,17.37
2019-04-25T09:40:51.368Z,17.60
2019-04-25T09:43:23.458Z,19.42
2019-04-25T09:46:07.994Z,18.37
2019-04-25T09:48:49.773Z,27.40
2019-04-25T09:51:25.675Z,14.83
2019-04-25T09:54:15.456Z,20.92
2019-04-25T09:57:24.395Z,20.95
2019-04-25T09:59:55.037Z,18.23
2019-04-25T10:02:26.683Z,14.93
2019-04-25T10:04:57.366Z,20.45
2019-04-25T10:07:27.918Z,19.25
2019-04-25T10:09:58.618Z,19.00
2019-04-25T10:12:29.427Z,19.42
2019-04-25T10:15:14.321Z,18.92
2019-04-25T10:17:46.103Z,20.35
2019-04-25T10:20:19.167Z,23.40
2019-04-25T10:22:49.704Z,18.42
2019-04-25T10:25:20.527Z,18.15
2019-04-25T10:27:51.973Z,17.67
2019-04-25T10:30:25.854Z,21.10
2019-04-25T10:32:56.129Z,20.62
2019-04-25T10:35:27.019Z,18.85
2019-04-25T10:37:57.841Z,17.25
2019-04-25T10:40:29.353Z,17.90
2019-04-25T10:43:01.415Z,24.77
2019-04-25T10:45:33.966Z,18.23
2019-04-25T10:48:05.267Z,28.32
2019-04-25T10:50:36.110Z,20.72
2019-04-25T10:53:06.830Z,22.50
2019-04-25T10:55:37.535Z,17.92
2019-04-25T10:58:08.382Z,23.92
2019-04-25T11:00:42.250Z,26.02
2019-04-25T11:03:33.725Z,24.43
2019-04-25T11:06:05.090Z,22.25
2019-04-25T11:08:35.927Z,29.42
2019-04-25T11:11:06.881Z,22.22
2019-04-25T11:13:37.768Z,23.27
2019-04-25T11:16:08.719Z,18.12
2019-04-25T11:18:39.514Z,23.40
2019-04-25T11:21:10.259Z,19.15
2019-04-25T11:23:41.403Z,22.07
2019-04-25T11:26:13.735Z,24.32
2019-04-25T11:28:45.319Z,23.50
2019-04-25T11:31:23.668Z,20.30
2019-04-25T11:33:54.545Z,16.82
2019-04-25T11:36:25.549Z,23.05
2019-04-25T11:39:15.378Z,21.27
2019-04-25T11:41:48.208Z,16.95
2019-04-25T11:44:18.782Z,16.48
2019-04-25T11:46:49.680Z,27.90
2019-04-25T11:49:20.522Z,20.37
2019-04-25T11:51:52.358Z,25.75
2019-04-25T11:54:24.260Z,22.77
2019-04-25T11:56:56.459Z,19.60
2019-04-25T11:59:27.382Z,19.23
2019-04-25T12:01:58.025Z,29.50
2019-04-25T12:04:28.892Z,23.55
2019-04-25T12:06:59.525Z,21.10
2019-04-25T12:09:30.239Z,18.62
2019-04-25T12:12:00.904Z,24.20
2019-04-25T12:14:31.761Z,23.73
2019-04-25T12:17:03.807Z,27.40
2019-04-25T12:19:37.989Z,22.55
2019-04-25T12:22:11.209Z,22.52
2019-04-25T12:24:44.509Z,22.87
2019-04-25T12:27:14.518Z,28.77
2019-04-25T12:29:45.984Z,21.75
2019-04-25T12:32:16.959Z,23.98
2019-04-25T12:34:47.518Z,35.40
2019-04-25T12:37:19.775Z,19.42
2019-04-25T12:39:50.935Z,20.75
2019-04-25T12:42:21.978Z,21.48
2019-04-25T12:45:07.167Z,17.48
2019-04-25T12:47:41.717Z,23.40
2019-04-25T12:50:14.267Z,22.93
2019-04-25T12:52:46.529Z,25.50
2019-04-25T12:55:17.702Z,20.85
2019-04-25T12:57:49.435Z,29.82
2019-04-25T13:00:25.022Z,17.12
2019-04-25T13:02:56.601Z,19.20
2019-04-25T13:05:27.452Z,23.42
2019-04-25T13:07:59.769Z,22.17
2019-04-25T13:10:33.309Z,20.55
2019-04-25T13:13:04.386Z,19.75
2019-04-25T13:15:35.505Z,22.62
2019-04-25T13:18:06.298Z,24.92
2019-04-25T13:20:37.076Z,25.45
2019-04-25T13:23:07.985Z,29.57
2019-04-25T13:25:38.756Z,23.15
2019-04-25T13:28:28.472Z,22.58
2019-04-25T13:31:18.391Z,22.02
2019-04-25T13:34:01.671Z,26.52
2019-04-25T13:36:34.713Z,22.15
2019-04-25T13:39:13.237Z,23.00
2019-04-25T13:41:44.971Z,15.48
2019-04-25T13:44:16.448Z,22.55
2019-04-25T13:46:47.640Z,25.75
2019-04-25T13:49:18.353Z,24.50
2019-04-25T13:51:51.664Z,25.37
2019-04-25T13:54:23.829Z,18.17
2019-04-25T13:56:54.829Z,25.90
2019-04-25T13:59:25.703Z,21.07
2019-04-25T14:01:57.913Z,21.57
2019-04-25T14:04:29.456Z,23.15
2019-04-25T14:07:01.382Z,26.40
2019-04-25T14:09:32.235Z,25.60
2019-04-25T14:12:04.040Z,23.47
2019-04-25T14:14:36.032Z,17.67
2019-04-25T14:17:25.995Z,22.58
2019-04-25T14:20:14.281Z,28.50
2019-04-25T14:22:46.329Z,21.55
2019-04-25T14:25:18.593Z,21.90
2019-04-25T14:27:49.336Z,25.40
2019-04-25T14:30:23.976Z,22.20
2019-04-25T14:32:54.698Z,25.75
2019-04-25T14:35:25.446Z,25.97
2019-04-25T14:37:56.282Z,25.55
2019-04-25T14:40:27.042Z,20.60
2019-04-25T14:42:57.819Z,27.00
2019-04-25T14:45:40.358Z,22.87
2019-04-25T14:48:00.817Z,19.50
2019-04-25T14:50:31.846Z,24.23
2019-04-25T14:53:02.605Z,23.22
2019-04-25T14:55:52.396Z,24.82
2019-04-25T14:58:30.356Z,23.67
2019-04-25T15:01:02.242Z,25.12
2019-04-25T15:03:33.389Z,19.42
2019-04-25T15:06:04.149Z,30.35
2019-04-25T15:08:34.839Z,25.10
2019-04-25T15:11:06.306Z,20.65
2019-04-25T15:13:37.128Z,32.15
2019-04-25T15:16:07.903Z,25.62
2019-04-25T15:18:46.476Z,24.52
2019-04-25T15:21:10.948Z,18.12
2019-04-25T15:23:41.841Z,19.07
2019-04-25T15:26:12.537Z,29.40
2019-04-25T15:28:46.749Z,26.82
2019-04-25T15:31:17.499Z,23.50
2019-04-25T15:33:48.144Z,19.95
2019-04-25T15:36:28.566Z,21.60
2019-04-25T15:39:18.398Z,24.47
2019-04-25T15:42:08.193Z,23.40
2019-04-25T15:44:57.806Z,25.68
2019-04-25T15:47:29.917Z,25.50
2019-04-25T15:50:00.999Z,18.80
2019-04-25T15:52:33.801Z,29.45
2019-04-25T15:55:07.500Z,21.77
2019-04-25T15:57:38.459Z,27.42
2019-04-25T16:00:15.012Z,25.70
2019-04-25T16:02:45.663Z,28.32
2019-04-25T16:05:16.639Z,20.68
2019-04-25T16:07:47.263Z,21.12
2019-04-25T16:10:19.389Z,21.65
2019-04-25T16:12:50.130Z,29.25
2019-04-25T16:15:20.989Z,24.82
2019-04-25T16:17:51.794Z,27.13
2019-04-25T16:20:22.635Z,24.07
2019-04-25T16:22:53.214Z,26.40
2019-04-25T16:25:23.895Z,24.25
2019-04-25T16:27:54.847Z,26.85
2019-04-25T16:30:30.685Z,20.62
2019-04-25T16:33:01.445Z,29.35
2019-04-25T16:35:33.236Z,27.60
2019-04-25T16:38:06.900Z,22.50
2019-04-25T16:40:43.040Z,21.68
2019-04-25T16:43:16.769Z,21.95
2019-04-25T16:45:47.609Z,21.40
2019-04-25T16:48:18.638Z,29.98
2019-04-25T16:50:49.360Z,26.12
2019-04-25T16:53:20.106Z,27.37
2019-04-25T16:55:50.890Z,26.35
2019-04-25T16:58:24.435Z,33.08
2019-04-25T17:01:14.109Z,27.48
2019-04-25T17:03:46.721Z,33.60
2019-04-25T17:06:17.439Z,34.85
2019-04-25T17:08:48.108Z,28.85
2019-04-25T17:11:18.941Z,30.20
2019-04-25T17:13:59.600Z,27.00
2019-04-25T17:16:45.346Z,33.28
2019-04-25T17:19:23.560Z,28.87
2019-04-25T17:21:54.207Z,33.90
2019-04-25T17:24:24.881Z,30.10
2019-04-25T17:26:57.307Z,33.33
2019-04-25T17:29:28.328Z,34.53
2019-04-25T17:32:07.472Z,30.12
2019-04-25T17:34:57.081Z,27.00
2019-04-25T17:37:39.497Z,34.20
2019-04-25T17:40:22.538Z,27.32
2019-04-25T17:42:56.558Z,18.92
2019-04-25T17:45:32.132Z,28.30
2019-04-25T17:48:04.523Z,23.07
2019-04-25T17:50:35.165Z,31.68
2019-04-25T17:53:06.059Z,25.60
2019-04-25T17:55:37.403Z,26.80
2019-04-25T17:58:08.484Z,31.12
2019-04-25T18:00:42.001Z,28.95
2019-04-25T18:03:13.869Z,28.65
2019-04-25T18:05:44.554Z,35.00
2019-04-25T18:08:15.586Z,27.73
2019-04-25T18:10:46.329Z,25.85
2019-04-25T18:15:14.040Z,36.42
2019-04-25T18:17:45.053Z,34.15
2019-04-25T18:20:19.868Z,36.38
2019-04-25T18:22:58.400Z,32.60
2019-04-25T18:25:47.852Z,35.43
2019-04-25T18:28:23.689Z,28.30
2019-04-25T18:30:54.729Z,34.23
2019-04-25T18:33:29.682Z,32.25
2019-04-25T18:36:19.539Z,32.75
2019-04-25T18:39:01.357Z,47.45
2019-04-25T18:41:39.723Z,37.30
2019-04-25T18:44:11.211Z,24.52
2019-04-25T18:46:47.170Z,30.37
2019-04-25T18:49:18.124Z,28.85
2019-04-25T18:51:57.812Z,40.63
2019-04-25T18:54:41.122Z,35.50
2019-04-25T18:57:22.243Z,28.80
2019-04-25T19:00:12.056Z,33.73
2019-04-25T19:03:02.624Z,32.67
2019-04-25T19:05:52.337Z,28.60
2019-04-25T19:08:26.269Z,29.97
2019-04-25T19:11:00.172Z,29.13
2019-04-25T19:13:31.371Z,34.90
2019-04-25T19:16:03.980Z,27.93
2019-04-25T19:18:36.452Z,28.90
2019-04-25T19:21:12.674Z,35.10
2019-04-25T19:23:49.731Z,37.53
2019-04-25T19:26:23.914Z,43.43
2019-04-25T19:28:59.648Z,34.97
2019-04-25T19:31:37.173Z,28.83
2019-04-25T19:34:10.545Z,40.23
2019-04-25T19:36:46.927Z,32.80
2019-04-25T19:39:25.720Z,44.77
2019-04-25T19:42:20.847Z,34.17
2019-04-25T19:44:59.832Z,41.00
2019-04-25T19:47:41.346Z,36.63
2019-04-25T19:50:18.531Z,41.50
2019-04-25T19:52:56.708Z,39.40
2019-04-25T19:55:33.220Z,42.33
2019-04-25T19:58:10.571Z,41.40
2019-04-25T20:00:50.821Z,31.77
2019-04-25T20:03:47.306Z,36.97
2019-04-25T20:06:16.050Z,41.90
2019-04-25T20:08:59.708Z,39.47
2019-04-25T20:11:36.879Z,36.50
2019-04-25T20:14:10.075Z,43.27
2019-04-25T20:16:44.896Z,38.90
2019-04-25T20:19:17.162Z,36.77
2019-04-25T20:21:50.027Z,43.17
2019-04-25T20:24:21.364Z,38.63
2019-04-25T20:26:52.574Z,42.10
2019-04-25T20:29:23.616Z,46.80
2019-04-25T20:31:54.880Z,41.57
2019-04-25T20:34:25.697Z,43.90
2019-04-25T20:36:56.554Z,31.83
2019-04-25T20:39:27.866Z,42.90
2019-04-25T20:41:58.448Z,51.30
2019-04-25T20:44:29.086Z,39.07
2019-04-25T20:47:01.784Z,40.83
2019-04-25T20:49:33.375Z,49.00
2019-04-25T20:52:04.300Z,43.90
2019-04-25T20:54:34.790Z,51.43
2019-04-25T20:57:05.478Z,44.23
2019-04-25T20:59:36.107Z,46.97
2019-04-25T21:02:07.673Z,46.20
2019-04-25T21:04:43.030Z,52.90
2019-04-25T21:07:14.597Z,53.40
2019-04-25T21:09:45.194Z,37.17
2019-04-25T21:12:16.295Z,38.83
2019-04-25T21:14:56.898Z,40.57
2019-04-25T21:17:36.640Z,45.60
2019-04-25T21:20:08.021Z,47.13
2019-04-25T21:22:41.514Z,44.00
2019-04-25T21:25:12.296Z,54.23
2019-04-25T21:27:42.951Z,50.17
2019-04-25T21:30:13.811Z,53.83
2019-04-25T21:32:53.402Z,51.93
2019-04-25T21:35:24.885Z,50.43
2019-04-25T21:37:55.590Z,44.57
2019-04-25T21:40:45.188Z,48.87
2019-04-25T21:43:20.403Z,56.27
2019-04-25T21:45:51.898Z,44.27
2019-04-25T21:48:23.548Z,47.47
2019-04-25T21:50:55.014Z,51.67
2019-04-25T21:53:26.750Z,37.97
2019-04-25T21:55:57.629Z,58.33
2019-04-25T21:58:28.525Z,54.50
2019-04-25T22:01:18.355Z,43.47
2019-04-25T22:03:49.628Z,44.47
2019-04-25T22:06:20.985Z,47.60
2019-04-25T22:08:51.475Z,54.90
2019-04-25T22:11:22.069Z,52.87
2019-04-25T22:13:52.870Z,56.07
2019-04-25T22:16:23.885Z,44.70
2019-04-25T22:18:55.512Z,44.63
2019-04-25T22:21:37.387Z,48.53
2019-04-25T22:24:08.909Z,58.53
2019-04-25T22:26:31.419Z,55.10
2019-04-25T22:29:03.279Z,48.60
2019-04-25T22:31:39.742Z,45.53
2019-04-25T22:34:29.476Z,51.83
2019-04-25T22:37:00.150Z,50.37
2019-04-25T22:39:30.849Z,48.17
2019-04-25T22:42:03.878Z,43.10
2019-04-25T22:44:35.074Z,56.73
2019-04-25T22:47:07.173Z,48.23
2019-04-25T22:49:38.670Z,53.33
2019-04-25T22:52:09.308Z,46.60
2019-04-25T22:54:40.068Z,52.30
2019-04-25T22:57:10.498Z,50.83
2019-04-25T22:59:41.235Z,52.53
2019-04-25T23:02:28.857Z,56.20
2019-04-25T23:05:14.409Z,40.53
2019-04-25T23:07:41.957Z,50.43
2019-04-25T23:10:12.793Z,46.00
2019-04-25T23:12:43.247Z,51.53
2019-04-25T23:15:15.278Z,57.97
2019-04-25T23:17:45.775Z,45.80
2019-04-25T23:20:19.858Z,57.17
2019-04-25T23:22:50.454Z,54.33
2019-04-25T23:25:26.414Z,58.13
2019-04-25T23:28:06.622Z,56.20
2019-04-25T23:30:57.362Z,58.07
2019-04-25T23:33:28.045Z,50.60
2019-04-25T23:35:58.973Z,51.50
2019-04-25T23:38:30.839Z,51.37
2019-04-25T23:41:01.748Z,56.23
2019-04-25T23:43:32.620Z,52.27
2019-04-25T23:46:03.158Z,53.60
2019-04-25T23:48:35.242Z,51.40
2019-04-25T23:51:06.375Z,45.40
2019-04-25T23:53:38.085Z,54.80
2019-04-25T23:56:08.928Z,48.43
2019-04-25T23:58:39.880Z,56.60
